createdAt,value
2022-09-27T00:03:30.391Z,73.56
2022-09-27T00:08:36.517Z,71.21
2022-09-27T00:13:38.135Z,72.02
2022-09-27T00:18:39.715Z,72.59
2022-09-27T00:23:41.741Z,71.34
2022-09-27T00:28:43.517Z,71.42
2022-09-27T00:33:45.178Z,70.58
2022-09-27T00:38:47.149Z,69.76
2022-09-27T00:43:55.273Z,68.08
2022-09-27T00:49:24.282Z,68.60
2022-09-27T00:54:28.718Z,68.51
2022-09-27T00:59:43.512Z,70.75
2022-09-27T01:04:46.313Z,66.29
2022-09-27T01:09:48.403Z,66.02
2022-09-27T01:15:00.510Z,67.91
2022-09-27T01:20:33.349Z,70.94
2022-09-27T01:25:50.255Z,69.97
2022-09-27T01:31:07.884Z,72.56
2022-09-27T01:36:18.032Z,71.97
2022-09-27T01:41:28.156Z,72.38
2022-09-27T01:46:55.470Z,70.91
2022-09-27T01:52:22.223Z,69.39
2022-09-27T01:57:30.299Z,70.24
2022-09-27T02:02:36.857Z,67.79
2022-09-27T02:08:05.137Z,68.91
2022-09-27T02:13:19.571Z,69.00
2022-09-27T02:18:32.760Z,68.61
2022-09-27T02:23:50.516Z,67.98
2022-09-27T02:29:07.356Z,69.30
2022-09-27T02:34:22.534Z,71.80
2022-09-27T02:39:24.978Z,68.57
2022-09-27T02:44:38.338Z,68.21
2022-09-27T02:50:14.887Z,69.10
2022-09-27T02:55:51.010Z,68.84
2022-09-27T03:02:00.428Z,67.43
2022-09-27T03:07:08.648Z,67.17
2022-09-27T03:12:21.369Z,69.29
2022-09-27T03:17:23.539Z,67.77
2022-09-27T03:22:38.196Z,69.13
2022-09-27T03:27:40.136Z,68.87
2022-09-27T03:32:45.708Z,67.85
2022-09-27T03:38:07.054Z,65.08
2022-09-27T03:43:08.691Z,67.38
2022-09-27T03:48:10.595Z,67.43
2022-09-27T03:53:12.355Z,67.63
2022-09-27T03:58:14.429Z,68.21
2022-09-27T04:03:19.880Z,68.86
2022-09-27T04:08:47.476Z,71.40
2022-09-27T04:13:50.384Z,71.25
2022-09-27T04:18:54.010Z,71.04
2022-09-27T04:24:14.295Z,71.91
2022-09-27T04:29:25.815Z,72.72
2022-09-27T04:34:47.932Z,72.29
2022-09-27T04:39:56.530Z,72.37
2022-09-27T04:44:58.210Z,73.67
2022-09-27T04:50:00.229Z,72.13
2022-09-27T04:55:01.793Z,70.71
2022-09-27T05:00:06.841Z,71.11
2022-09-27T05:05:09.026Z,72.40
2022-09-27T05:10:13.991Z,73.11
2022-09-27T05:15:17.113Z,73.83
2022-09-27T05:20:54.051Z,72.71
2022-09-27T05:26:06.042Z,71.51
2022-09-27T05:31:11.115Z,71.71
2022-09-27T05:36:13.533Z,73.14
2022-09-27T05:41:15.908Z,72.43
2022-09-27T05:46:17.886Z,73.28
2022-09-27T05:51:21.865Z,73.46
2022-09-27T05:56:25.089Z,72.58
2022-09-27T06:01:45.435Z,72.59
2022-09-27T06:07:20.549Z,72.79
2022-09-27T06:12:22.377Z,73.22
2022-09-27T06:17:24.274Z,73.87
2022-09-27T06:22:26.086Z,74.62
2022-09-27T06:27:33.543Z,73.89
2022-09-27T06:32:40.660Z,73.83
2022-09-27T06:37:53.256Z,74.72
2022-09-27T06:43:09.260Z,74.73
2022-09-27T06:48:30.139Z,76.34
2022-09-27T06:53:51.324Z,76.35
2022-09-27T06:59:12.368Z,77.77
2022-09-27T07:04:16.846Z,77.11
2022-09-27T07:09:50.940Z,77.42
2022-09-27T07:14:53.379Z,76.68
2022-09-27T07:19:57.671Z,73.36
2022-09-27T07:25:02.598Z,71.65
2022-09-27T07:30:07.275Z,72.08
2022-09-27T07:35:10.344Z,73.06
2022-09-27T07:40:12.429Z,74.92
2022-09-27T07:45:14.283Z,75.14
2022-09-27T07:50:39.221Z,76.15
2022-09-27T07:56:09.701Z,75.93
2022-09-27T08:01:12.740Z,77.63
2022-09-27T08:06:14.515Z,77.43
2022-09-27T08:11:18.840Z,78.69
2022-09-27T08:16:23.287Z,77.91
2022-09-27T08:21:59.045Z,79.79
2022-09-27T08:27:12.037Z,80.63
2022-09-27T08:32:28.009Z,81.13
2022-09-27T08:37:30.079Z,81.82
2022-09-27T08:42:48.244Z,80.56
2022-09-27T08:48:00.338Z,79.45
2022-09-27T08:53:14.605Z,80.64
2022-09-27T08:58:35.900Z,81.22
2022-09-27T09:03:55.691Z,81.25
2022-09-27T09:09:17.878Z,82.04
2022-09-27T09:14:58.548Z,82.83
2022-09-27T09:20:19.102Z,82.79
2022-09-27T09:26:10.884Z,84.55
2022-09-27T09:31:27.524Z,82.57
2022-09-27T09:36:50.339Z,83.09
2022-09-27T09:42:10.197Z,82.33
2022-09-27T09:47:44.313Z,85.13
2022-09-27T09:52:51.779Z,84.43
2022-09-27T09:58:04.081Z,85.56
2022-09-27T10:03:15.134Z,86.14
2022-09-27T10:08:24.325Z,86.45
2022-09-27T10:13:41.485Z,86.03
2022-09-27T10:18:49.660Z,84.90
2022-09-27T10:24:04.703Z,82.44
2022-09-27T10:29:37.721Z,82.31
2022-09-27T10:34:43.792Z,83.46
2022-09-27T10:39:53.732Z,82.64
2022-09-27T10:44:56.474Z,83.88
2022-09-27T10:50:08.038Z,86.43
2022-09-27T10:55:40.296Z,89.29
2022-09-27T11:00:44.372Z,86.30
2022-09-27T11:05:46.327Z,87.95
2022-09-27T11:11:24.764Z,89.01
2022-09-27T11:16:43.520Z,89.57
2022-09-27T11:22:08.709Z,88.82
2022-09-27T11:27:25.881Z,88.65
2022-09-27T11:32:57.896Z,90.02
2022-09-27T11:38:47.881Z,92.13
2022-09-27T11:44:21.256Z,94.66
2022-09-27T11:49:45.892Z,95.59
2022-09-27T11:55:14.669Z,92.99
2022-09-27T12:00:19.854Z,91.85
2022-09-27T12:05:43.523Z,91.89
2022-09-27T12:11:00.150Z,92.11
2022-09-27T12:16:16.661Z,89.71
2022-09-27T12:21:20.611Z,89.33
2022-09-27T12:26:42.811Z,91.09
2022-09-27T12:32:20.222Z,91.98
2022-09-27T12:37:44.114Z,93.16
2022-09-27T12:42:54.962Z,94.46
2022-09-27T12:48:21.453Z,94.15
2022-09-27T12:53:30.164Z,93.84
2022-09-27T12:59:04.703Z,92.35
2022-09-27T13:04:30.162Z,87.23
2022-09-27T13:10:05.110Z,75.00
2022-09-27T13:15:20.675Z,75.23
2022-09-27T13:20:28.485Z,74.18
2022-09-27T13:25:54.264Z,74.72
2022-09-27T13:31:16.377Z,72.57
2022-09-27T13:36:30.572Z,73.67
2022-09-27T13:41:46.636Z,70.23
2022-09-27T13:47:26.078Z,69.20
2022-09-27T13:52:35.882Z,68.28
2022-09-27T13:58:03.734Z,65.32
2022-09-27T14:03:20.637Z,66.77
2022-09-27T14:08:36.895Z,62.24
2022-09-27T14:13:40.929Z,65.26
2022-09-27T14:18:53.894Z,64.69
2022-09-27T14:24:22.463Z,66.90
2022-09-27T14:29:26.952Z,66.63
2022-09-27T14:34:29.227Z,65.48
2022-09-27T14:39:35.801Z,67.53
2022-09-27T14:44:45.547Z,67.34
2022-09-27T14:49:57.865Z,66.20
2022-09-27T14:55:08.706Z,65.87
2022-09-27T15:00:32.145Z,64.93
2022-09-27T15:05:35.681Z,64.53
2022-09-27T15:10:39.163Z,64.88
2022-09-27T15:15:41.773Z,63.20
2022-09-27T15:20:53.501Z,62.54
2022-09-27T15:26:08.901Z,66.65
2022-09-27T15:31:11.247Z,69.68
2022-09-27T15:36:15.802Z,71.61
2022-09-27T15:41:20.388Z,72.36
2022-09-27T15:46:22.195Z,73.26
2022-09-27T15:51:40.644Z,73.79
2022-09-27T15:56:42.705Z,74.28
2022-09-27T16:01:45.423Z,74.37
2022-09-27T16:06:50.654Z,74.08
2022-09-27T16:11:52.415Z,73.80
2022-09-27T16:16:59.337Z,74.05
2022-09-27T16:22:03.597Z,73.47
2022-09-27T16:27:05.217Z,74.75
2022-09-27T16:32:08.426Z,74.63
2022-09-27T16:37:11.554Z,75.25
2022-09-27T16:42:14.566Z,75.49
2022-09-27T16:47:16.557Z,75.86
2022-09-27T16:52:18.559Z,75.79
2022-09-27T16:57:20.187Z,76.63
2022-09-27T17:02:22.543Z,75.40
2022-09-27T17:07:25.549Z,75.71
2022-09-27T17:12:27.334Z,74.15
2022-09-27T17:17:28.908Z,76.38
2022-09-27T17:22:31.594Z,75.15
2022-09-27T17:27:33.201Z,73.67
2022-09-27T17:32:36.017Z,72.31
2022-09-27T17:37:37.715Z,73.29
2022-09-27T17:42:39.426Z,74.32
2022-09-27T17:47:59.721Z,76.98
2022-09-27T17:53:01.410Z,79.39
2022-09-27T17:58:03.999Z,80.74
2022-09-27T22:44:08.634Z,94.24
2022-09-27T22:49:11.234Z,95.52
2022-09-27T22:54:17.134Z,94.98
2022-09-27T22:59:22.847Z,94.82
2022-09-27T23:04:24.882Z,94.99
2022-09-27T23:09:26.690Z,95.34
2022-09-27T23:14:29.895Z,95.21
2022-09-27T23:19:34.579Z,94.99
2022-09-27T23:24:36.180Z,95.24
2022-09-27T23:29:37.895Z,95.58
2022-09-27T23:34:39.450Z,95.24
2022-09-27T23:39:41.083Z,96.66
2022-09-27T23:44:43.767Z,97.15
2022-09-27T23:49:45.381Z,96.54
2022-09-27T23:54:47.183Z,96.30
2022-09-27T23:59:48.747Z,96.45
